createdAt,value
2024-02-18T00:00:05.877Z,43.00
2024-02-18T00:02:36.232Z,43.00
2024-02-18T00:05:05.567Z,43.10
2024-02-18T00:07:34.121Z,43.10
2024-02-18T00:10:02.330Z,43.20
2024-02-18T00:12:30.606Z,43.30
2024-02-18T00:14:58.596Z,42.80
2024-02-18T00:17:26.671Z,43.00
2024-02-18T00:19:56.277Z,43.00
2024-02-18T00:22:24.291Z,43.00
2024-02-18T00:24:53.079Z,42.90
2024-02-18T00:27:21.226Z,43.00
2024-02-18T00:29:49.611Z,43.00
2024-02-18T00:32:17.628Z,42.90
2024-02-18T00:34:45.711Z,42.90
2024-02-18T00:37:15.129Z,42.90
2024-02-18T00:39:43.158Z,42.90
2024-02-18T00:42:11.500Z,43.00
2024-02-18T00:44:39.606Z,42.90
2024-02-18T00:47:07.760Z,42.90
2024-02-18T00:49:36.312Z,43.00
2024-02-18T00:52:04.933Z,43.00
2024-02-18T00:54:34.967Z,42.90
2024-02-18T00:57:03.009Z,42.90
2024-02-18T00:59:30.987Z,43.00
2024-02-18T01:01:59.018Z,43.00
2024-02-18T01:04:27.221Z,44.30
2024-02-18T01:06:55.363Z,43.40
2024-02-18T01:09:23.736Z,43.30
2024-02-18T01:11:54.208Z,43.40
2024-02-18T01:14:22.211Z,43.50
2024-02-18T01:16:50.657Z,43.40
2024-02-18T01:19:18.792Z,43.90
2024-02-18T01:21:46.897Z,44.30
2024-02-18T01:24:14.921Z,43.80
2024-02-18T01:26:42.915Z,43.90
2024-02-18T01:29:12.296Z,44.00
2024-02-18T01:31:40.287Z,44.20
2024-02-18T01:34:08.408Z,44.10
2024-02-18T01:36:36.515Z,44.10
2024-02-18T01:39:04.605Z,44.30
2024-02-18T01:41:32.878Z,44.20
2024-02-18T01:44:00.839Z,44.20
2024-02-18T01:46:30.542Z,44.30
2024-02-18T01:48:59.180Z,44.30
2024-02-18T01:51:27.710Z,44.30
2024-02-18T01:53:55.796Z,44.30
2024-02-18T01:56:25.531Z,44.40
2024-02-18T01:58:53.992Z,44.50
2024-02-18T02:01:22.453Z,44.30
2024-02-18T02:03:53.960Z,44.30
2024-02-18T02:06:23.501Z,44.40
2024-02-18T02:08:52.179Z,44.30
2024-02-18T02:11:20.258Z,44.40
2024-02-18T02:13:48.697Z,44.40
2024-02-18T02:16:16.829Z,44.40
2024-02-18T02:18:44.985Z,44.40
2024-02-18T02:21:14.439Z,44.40
2024-02-18T02:23:42.453Z,44.50
2024-02-18T02:26:13.233Z,44.60
2024-02-18T02:28:47.086Z,44.60
2024-02-18T02:31:17.423Z,44.50
2024-02-18T02:33:46.148Z,44.40
2024-02-18T02:36:14.187Z,44.60
2024-02-18T02:38:42.568Z,44.60
2024-02-18T02:41:10.555Z,44.60
2024-02-18T02:43:38.551Z,44.50
2024-02-18T02:46:06.638Z,44.60
2024-02-18T02:48:36.310Z,44.70
2024-02-18T02:51:04.513Z,44.80
2024-02-18T02:53:32.464Z,44.70
2024-02-18T02:56:01.133Z,44.70
2024-02-18T02:58:29.131Z,44.60
2024-02-18T03:00:57.206Z,44.60
2024-02-18T03:03:25.262Z,44.60
2024-02-18T03:05:54.615Z,44.70
2024-02-18T03:08:23.320Z,44.70
2024-02-18T03:10:51.351Z,44.90
2024-02-18T03:13:20.368Z,45.00
2024-02-18T03:15:48.500Z,44.90
2024-02-18T03:18:16.682Z,44.90
2024-02-18T03:20:45.074Z,44.80
2024-02-18T03:23:13.491Z,44.70
2024-02-18T03:25:44.946Z,45.00
2024-02-18T03:28:13.123Z,45.10
2024-02-18T03:30:41.435Z,45.00
2024-02-18T03:33:09.561Z,44.80
2024-02-18T03:35:37.608Z,44.90
2024-02-18T03:38:05.777Z,45.50
2024-02-18T03:40:35.101Z,45.00
2024-02-18T03:43:03.218Z,45.00
2024-02-18T03:45:31.296Z,45.00
2024-02-18T03:47:59.336Z,45.00
2024-02-18T03:50:27.330Z,44.90
2024-02-18T03:52:55.355Z,45.00
2024-02-18T03:55:23.600Z,45.20
2024-02-18T03:57:52.989Z,45.10
2024-02-18T04:00:21.109Z,45.10
2024-02-18T04:02:49.175Z,45.10
2024-02-18T04:05:17.784Z,45.10
2024-02-18T04:07:46.173Z,45.10
2024-02-18T04:10:15.578Z,45.20
2024-02-18T04:12:44.764Z,45.20
2024-02-18T04:15:14.064Z,45.20
2024-02-18T04:17:42.132Z,45.20
2024-02-18T04:20:11.560Z,45.30
2024-02-18T04:22:39.986Z,45.40
2024-02-18T04:25:08.576Z,45.50
2024-02-18T04:27:36.619Z,45.50
2024-02-18T04:30:05.014Z,45.40
2024-02-18T04:32:34.370Z,45.50
2024-02-18T04:35:02.460Z,45.40
2024-02-18T04:37:30.539Z,45.30
2024-02-18T04:39:59.390Z,45.30
2024-02-18T04:42:27.487Z,45.20
2024-02-18T04:44:55.476Z,45.30
2024-02-18T04:47:24.913Z,45.80
2024-02-18T04:49:54.420Z,45.20
2024-02-18T04:52:22.461Z,45.70
2024-02-18T04:54:50.514Z,45.10
2024-02-18T04:57:18.465Z,45.30
2024-02-18T04:59:46.450Z,45.20
2024-02-18T05:02:14.412Z,45.30
2024-02-18T05:04:42.349Z,45.30
2024-02-18T05:07:11.696Z,45.30
2024-02-18T05:09:40.521Z,45.30
2024-02-18T05:12:09.046Z,45.40
2024-02-18T05:14:37.025Z,45.30
2024-02-18T05:17:05.147Z,45.30
2024-02-18T05:19:33.248Z,45.40
2024-02-18T05:22:01.425Z,45.40
2024-02-18T05:24:30.871Z,45.50
2024-02-18T05:26:57.844Z,45.60
2024-02-18T05:29:26.148Z,45.60
2024-02-18T05:31:55.384Z,45.80
2024-02-18T05:34:23.618Z,45.70
2024-02-18T05:36:51.845Z,45.60
2024-02-18T05:39:19.843Z,45.70
2024-02-18T05:41:49.218Z,45.60
2024-02-18T05:44:17.568Z,46.30
2024-02-18T05:46:45.524Z,45.70
2024-02-18T05:49:13.618Z,45.70
2024-02-18T05:51:41.736Z,45.60
2024-02-18T05:54:09.792Z,45.60
2024-02-18T05:56:37.749Z,45.60
2024-02-18T05:59:07.158Z,45.60
2024-02-18T06:01:35.199Z,45.50
2024-02-18T06:04:03.367Z,45.60
2024-02-18T06:06:32.055Z,45.70
2024-02-18T06:09:00.073Z,45.80
2024-02-18T06:11:28.536Z,46.30
2024-02-18T06:13:56.618Z,45.70
2024-02-18T06:16:25.956Z,45.70
2024-02-18T06:18:54.160Z,45.80
2024-02-18T06:21:23.024Z,45.80
2024-02-18T06:23:56.909Z,45.70
2024-02-18T06:26:25.427Z,45.90
2024-02-18T06:28:52.470Z,46.00
2024-02-18T06:31:20.591Z,46.00
2024-02-18T06:33:50.667Z,46.60
2024-02-18T06:36:18.885Z,46.00
2024-02-18T06:38:47.352Z,46.10
2024-02-18T06:41:16.525Z,46.10
2024-02-18T06:43:44.484Z,46.00
2024-02-18T06:46:13.605Z,46.10
2024-02-18T06:48:41.977Z,46.10
2024-02-18T06:51:12.021Z,46.10
2024-02-18T06:53:40.100Z,46.00
2024-02-18T06:56:08.693Z,45.90
2024-02-18T06:58:36.653Z,45.80
2024-02-18T07:01:05.085Z,45.70
2024-02-18T07:03:33.665Z,45.70
2024-02-18T07:06:01.791Z,45.50
2024-02-18T07:08:31.213Z,45.50
2024-02-18T07:10:59.279Z,45.60
2024-02-18T07:13:27.382Z,45.60
2024-02-18T07:15:55.697Z,45.40
2024-02-18T07:18:23.905Z,45.30
2024-02-18T07:20:51.982Z,45.40
2024-02-18T07:23:19.981Z,45.30
2024-02-18T07:25:49.331Z,45.40
2024-02-18T07:28:18.105Z,45.10
2024-02-18T07:30:46.204Z,45.30
2024-02-18T07:33:14.367Z,45.40
2024-02-18T07:35:42.451Z,45.20
2024-02-18T07:38:10.421Z,45.40
2024-02-18T07:40:38.487Z,45.30
2024-02-18T07:43:07.902Z,45.40
2024-02-18T07:45:35.976Z,45.50
2024-02-18T07:48:04.220Z,45.20
2024-02-18T07:50:32.557Z,45.30
2024-02-18T07:53:00.610Z,45.20
2024-02-18T07:55:29.660Z,45.10
2024-02-18T07:57:57.754Z,44.90
2024-02-18T08:00:28.035Z,45.00
2024-02-18T08:02:56.072Z,45.10
2024-02-18T08:05:24.066Z,45.00
2024-02-18T08:07:52.054Z,44.70
2024-02-18T08:10:20.055Z,45.30
2024-02-18T08:12:50.765Z,44.80
2024-02-18T08:15:20.227Z,45.00
2024-02-18T08:17:49.784Z,45.10
2024-02-18T08:20:18.070Z,44.70
2024-02-18T08:22:46.490Z,44.80
2024-02-18T08:25:14.538Z,45.20
2024-02-18T08:27:42.516Z,45.30
2024-02-18T08:30:11.217Z,45.40
2024-02-18T08:32:40.471Z,45.40
2024-02-18T08:35:10.711Z,45.50
2024-02-18T08:37:39.114Z,45.40
2024-02-18T08:40:08.591Z,45.10
2024-02-18T08:42:36.622Z,44.60
2024-02-18T08:45:05.536Z,45.10
2024-02-18T08:47:33.709Z,44.80
2024-02-18T08:50:01.775Z,44.90
2024-02-18T08:52:32.033Z,45.30
2024-02-18T08:55:00.083Z,45.30
2024-02-18T08:57:28.171Z,45.00
2024-02-18T08:59:56.295Z,45.00
2024-02-18T09:02:24.259Z,44.90
2024-02-18T09:04:52.478Z,45.10
2024-02-18T09:07:20.746Z,45.30
2024-02-18T09:09:50.202Z,45.30
2024-02-18T09:12:18.236Z,45.20
2024-02-18T09:14:47.835Z,44.80
2024-02-18T09:17:17.379Z,45.50
2024-02-18T09:19:48.218Z,44.90
2024-02-18T09:22:16.615Z,46.00
2024-02-18T09:24:45.323Z,45.00
2024-02-18T09:27:14.822Z,45.70
2024-02-18T09:29:42.834Z,45.70
2024-02-18T09:32:10.896Z,45.70
2024-02-18T09:34:39.242Z,45.40
2024-02-18T09:37:07.475Z,45.00
2024-02-18T09:39:35.557Z,45.00
2024-02-18T09:42:09.497Z,45.00
2024-02-18T09:44:43.104Z,44.80
2024-02-18T09:47:14.916Z,45.40
2024-02-18T09:49:44.047Z,45.50
2024-02-18T09:52:14.569Z,45.60
2024-02-18T09:54:42.709Z,45.60
2024-02-18T09:57:10.902Z,45.60
2024-02-18T09:59:40.337Z,45.60
2024-02-18T10:02:09.899Z,45.70
2024-02-18T10:04:38.047Z,45.60
2024-02-18T10:07:06.681Z,45.30
2024-02-18T10:09:35.035Z,45.50
2024-02-18T10:12:03.040Z,45.50
2024-02-18T10:14:31.391Z,45.90
2024-02-18T10:17:00.762Z,46.00
2024-02-18T10:19:28.810Z,45.80
2024-02-18T10:21:58.107Z,45.80
2024-02-18T10:24:26.478Z,45.80
2024-02-18T10:26:56.873Z,45.50
2024-02-18T10:29:26.281Z,46.00
2024-02-18T10:31:54.344Z,45.50
2024-02-18T10:34:23.941Z,45.90
2024-02-18T10:36:55.703Z,46.00
2024-02-18T10:39:27.169Z,46.40
2024-02-18T10:42:01.588Z,46.00
2024-02-18T10:44:29.719Z,45.80
2024-02-18T10:46:58.827Z,46.20
2024-02-18T10:49:34.655Z,45.70
2024-02-18T10:52:13.132Z,45.70
2024-02-18T10:54:48.776Z,45.90
2024-02-18T10:57:22.767Z,46.00
2024-02-18T11:00:03.164Z,46.00
2024-02-18T11:02:37.070Z,45.80
2024-02-18T11:05:07.956Z,45.70
2024-02-18T11:07:37.098Z,45.50
2024-02-18T11:10:08.072Z,46.30
2024-02-18T11:12:38.734Z,46.20
2024-02-18T11:15:10.536Z,45.80
2024-02-18T11:17:39.276Z,45.80
2024-02-18T11:20:11.539Z,45.90
2024-02-18T11:22:40.994Z,45.90
2024-02-18T11:25:09.878Z,46.30
2024-02-18T11:27:38.290Z,46.10
2024-02-18T11:30:08.208Z,46.20
2024-02-18T11:32:36.200Z,45.30
2024-02-18T11:35:12.559Z,46.00
2024-02-18T11:37:41.262Z,46.20
2024-02-18T11:40:14.016Z,45.90
2024-02-18T11:42:43.709Z,46.00
2024-02-18T11:45:13.515Z,46.00
2024-02-18T11:47:46.518Z,45.80
2024-02-18T11:50:16.797Z,47.50
2024-02-18T11:52:46.080Z,48.30
2024-02-18T11:55:18.729Z,48.20
2024-02-18T11:57:47.605Z,49.00
2024-02-18T12:00:17.931Z,48.50
2024-02-18T12:02:51.562Z,48.40
2024-02-18T12:05:23.608Z,47.90
2024-02-18T12:07:53.516Z,48.10
2024-02-18T12:10:21.658Z,48.10
2024-02-18T12:12:49.634Z,47.90
2024-02-18T12:15:22.761Z,47.90
2024-02-18T12:17:53.790Z,47.50
2024-02-18T12:20:25.300Z,48.30
2024-02-18T12:22:53.690Z,47.90
2024-02-18T12:25:22.288Z,47.70
2024-02-18T12:27:51.594Z,47.60
2024-02-18T12:30:22.922Z,47.60
2024-02-18T12:32:51.111Z,47.40
2024-02-18T12:35:20.733Z,47.60
2024-02-18T12:37:50.361Z,47.40
2024-02-18T12:40:19.652Z,47.40
2024-02-18T12:43:04.478Z,47.40
2024-02-18T12:45:43.691Z,47.40
2024-02-18T12:48:17.187Z,47.10
2024-02-18T12:50:46.197Z,47.70
2024-02-18T12:53:15.628Z,48.10
2024-02-18T12:55:43.605Z,48.20
2024-02-18T12:58:11.747Z,48.20
2024-02-18T13:00:40.719Z,47.70
2024-02-18T13:03:12.498Z,47.60
2024-02-18T13:05:42.714Z,47.70
2024-02-18T13:08:10.838Z,47.70
2024-02-18T13:10:40.669Z,47.30
2024-02-18T13:13:09.850Z,47.90
2024-02-18T13:15:38.008Z,47.60
2024-02-18T13:18:11.402Z,47.60
2024-02-18T13:20:39.511Z,47.70
2024-02-18T13:23:07.637Z,48.30
2024-02-18T13:25:35.868Z,47.60
2024-02-18T13:28:06.313Z,47.40
2024-02-18T13:30:34.487Z,47.60
2024-02-18T13:33:02.606Z,47.30
2024-02-18T13:35:30.662Z,47.40
2024-02-18T13:37:58.660Z,47.30
2024-02-18T13:40:26.658Z,47.60
2024-02-18T13:42:54.709Z,47.50
2024-02-18T13:45:24.292Z,47.50
2024-02-18T13:47:58.681Z,47.50
2024-02-18T13:50:28.142Z,47.50
2024-02-18T13:52:56.407Z,47.70
2024-02-18T13:55:24.388Z,47.80
2024-02-18T13:57:52.899Z,47.70
2024-02-18T14:00:21.131Z,47.90
2024-02-18T14:02:51.624Z,47.90
2024-02-18T14:05:21.159Z,47.90
2024-02-18T14:07:49.241Z,48.00
2024-02-18T14:10:21.184Z,47.40
2024-02-18T14:12:50.122Z,47.80
2024-02-18T14:15:18.278Z,47.70
2024-02-18T14:17:47.872Z,47.80
2024-02-18T14:20:17.393Z,47.90
2024-02-18T14:22:45.432Z,47.90
2024-02-18T14:25:18.160Z,47.80
2024-02-18T14:27:46.250Z,47.90
2024-02-18T14:30:15.301Z,47.90
2024-02-18T14:32:43.427Z,47.80
2024-02-18T14:35:11.940Z,48.40
2024-02-18T14:37:41.551Z,47.90
2024-02-18T14:40:14.670Z,47.90
2024-02-18T14:42:44.536Z,47.70
2024-02-18T20:50:49.446Z,80.30
2024-02-18T21:08:11.249Z,80.60
2024-02-18T22:00:16.716Z,88.60
2024-02-18T22:30:15.343Z,49.50
2024-02-18T22:32:45.797Z,49.90
2024-02-18T22:35:13.954Z,49.80
2024-02-18T22:37:42.016Z,49.70
2024-02-18T22:40:10.907Z,49.80
2024-02-18T22:42:38.991Z,49.70
2024-02-18T22:45:08.145Z,49.80
2024-02-18T22:47:36.191Z,49.90
2024-02-18T22:50:06.459Z,50.20
2024-02-18T22:52:34.717Z,50.30
2024-02-18T22:55:03.134Z,50.00
2024-02-18T22:57:31.342Z,50.10
2024-02-18T22:59:59.477Z,50.10
2024-02-18T23:02:28.598Z,50.00
2024-02-18T23:04:56.585Z,50.30
2024-02-18T23:07:25.953Z,50.40
2024-02-18T23:09:53.953Z,50.30
2024-02-18T23:12:21.924Z,51.10
2024-02-18T23:14:49.968Z,50.40
2024-02-18T23:17:18.001Z,50.50
2024-02-18T23:19:46.100Z,50.40
2024-02-18T23:22:14.196Z,50.50
2024-02-18T23:24:43.592Z,50.60
2024-02-18T23:27:11.613Z,50.70
2024-02-18T23:29:39.575Z,50.70
2024-02-18T23:32:09.782Z,50.50
2024-02-18T23:34:37.900Z,50.60
2024-02-18T23:37:06.548Z,50.30
2024-02-18T23:39:34.757Z,50.60
2024-02-18T23:42:04.454Z,50.60
2024-02-18T23:44:32.470Z,50.80
2024-02-18T23:47:00.502Z,50.90
2024-02-18T23:49:28.539Z,50.80
2024-02-18T23:51:56.683Z,50.80
2024-02-18T23:54:24.768Z,50.90
2024-02-18T23:56:52.748Z,50.90
2024-02-18T23:59:22.086Z,51.00
